sensor_id;sensor_type;location;lat;lon;timestamp;P1;durP1;ratioP1;P2;durP2;ratioP2
4583;SDS011;2304;47.606;12.186;2024-03-07T00:01:20;15.30;;;11.83;;
4583;SDS011;2304;47.606;12.186;2024-03-07T00:06:22;15.53;;;12.40;;
4583;SDS011;2304;47.606;12.186;2024-03-07T00:11:25;12.83;;;10.23;;
4583;SDS011;2304;47.606;12.186;2024-03-07T00:16:28;15.80;;;11.67;;
4583;SDS011;2304;47.606;12.186;2024-03-07T00:21:30;14.80;;;10.63;;
4583;SDS011;2304;47.606;12.186;2024-03-07T00:26:33;16.13;;;11.73;;
4583;SDS011;2304;47.606;12.186;2024-03-07T00:31:35;14.17;;;11.30;;
4583;SDS011;2304;47.606;12.186;2024-03-07T00:36:37;14.77;;;11.20;;
4583;SDS011;2304;47.606;12.186;2024-03-07T00:41:40;13.93;;;10.57;;
4583;SDS011;2304;47.606;12.186;2024-03-07T00:46:42;16.13;;;11.57;;
4583;SDS011;2304;47.606;12.186;2024-03-07T00:51:52;14.43;;;11.47;;
4583;SDS011;2304;47.606;12.186;2024-03-07T00:56:56;13.20;;;10.57;;
4583;SDS011;2304;47.606;12.186;2024-03-07T01:01:59;13.80;;;11.10;;
4583;SDS011;2304;47.606;12.186;2024-03-07T01:07:01;19.03;;;12.00;;
4583;SDS011;2304;47.606;12.186;2024-03-07T01:12:05;13.90;;;10.80;;
4583;SDS011;2304;47.606;12.186;2024-03-07T01:17:10;14.50;;;11.27;;
4583;SDS011;2304;47.606;12.186;2024-03-07T01:22:12;13.40;;;9.90;;
4583;SDS011;2304;47.606;12.186;2024-03-07T01:27:21;13.50;;;10.80;;
4583;SDS011;2304;47.606;12.186;2024-03-07T01:32:24;12.53;;;10.30;;
4583;SDS011;2304;47.606;12.186;2024-03-07T01:37:27;14.00;;;11.00;;
4583;SDS011;2304;47.606;12.186;2024-03-07T01:42:30;13.80;;;11.17;;
4583;SDS011;2304;47.606;12.186;2024-03-07T01:47:32;15.67;;;12.27;;
4583;SDS011;2304;47.606;12.186;2024-03-07T01:52:34;15.10;;;10.83;;
4583;SDS011;2304;47.606;12.186;2024-03-07T01:57:37;32.23;;;18.83;;
4583;SDS011;2304;47.606;12.186;2024-03-07T02:02:49;36.60;;;20.57;;
4583;SDS011;2304;47.606;12.186;2024-03-07T02:07:53;23.63;;;16.43;;
4583;SDS011;2304;47.606;12.186;2024-03-07T02:12:57;15.30;;;11.70;;
4583;SDS011;2304;47.606;12.186;2024-03-07T02:18:01;15.07;;;11.30;;
4583;SDS011;2304;47.606;12.186;2024-03-07T02:23:04;15.63;;;12.20;;
4583;SDS011;2304;47.606;12.186;2024-03-07T02:28:07;17.10;;;12.50;;
4583;SDS011;2304;47.606;12.186;2024-03-07T02:33:09;15.50;;;12.37;;
4583;SDS011;2304;47.606;12.186;2024-03-07T02:38:22;16.70;;;12.73;;
4583;SDS011;2304;47.606;12.186;2024-03-07T02:43:24;15.60;;;12.40;;
4583;SDS011;2304;47.606;12.186;2024-03-07T02:48:26;15.50;;;12.30;;
4583;SDS011;2304;47.606;12.186;2024-03-07T02:53:29;16.67;;;12.93;;
4583;SDS011;2304;47.606;12.186;2024-03-07T02:58:31;16.70;;;12.27;;
4583;SDS011;2304;47.606;12.186;2024-03-07T03:03:33;17.00;;;12.67;;
4583;SDS011;2304;47.606;12.186;2024-03-07T03:08:36;18.10;;;13.27;;
4583;SDS011;2304;47.606;12.186;2024-03-07T03:13:48;17.07;;;11.70;;
4583;SDS011;2304;47.606;12.186;2024-03-07T03:18:56;16.23;;;12.47;;
4583;SDS011;2304;47.606;12.186;2024-03-07T03:23:59;15.47;;;11.37;;
4583;SDS011;2304;47.606;12.186;2024-03-07T03:29:02;16.43;;;12.53;;
4583;SDS011;2304;47.606;12.186;2024-03-07T03:34:06;17.13;;;12.77;;
4583;SDS011;2304;47.606;12.186;2024-03-07T03:39:11;18.60;;;13.13;;
4583;SDS011;2304;47.606;12.186;2024-03-07T03:44:13;18.57;;;13.80;;
4583;SDS011;2304;47.606;12.186;2024-03-07T03:49:18;20.10;;;14.13;;
4583;SDS011;2304;47.606;12.186;2024-03-07T03:54:21;24.13;;;15.97;;
4583;SDS011;2304;47.606;12.186;2024-03-07T03:59:23;19.10;;;14.10;;
4583;SDS011;2304;47.606;12.186;2024-03-07T04:04:25;19.57;;;14.63;;
4583;SDS011;2304;47.606;12.186;2024-03-07T04:09:28;21.13;;;15.87;;
4583;SDS011;2304;47.606;12.186;2024-03-07T04:14:31;16.43;;;12.80;;
4583;SDS011;2304;47.606;12.186;2024-03-07T04:19:33;20.23;;;14.20;;
4583;SDS011;2304;47.606;12.186;2024-03-07T04:24:51;17.47;;;13.20;;
4583;SDS011;2304;47.606;12.186;2024-03-07T04:29:55;21.20;;;14.40;;
4583;SDS011;2304;47.606;12.186;2024-03-07T04:34:57;21.87;;;13.53;;
4583;SDS011;2304;47.606;12.186;2024-03-07T04:40:00;19.37;;;14.33;;
4583;SDS011;2304;47.606;12.186;2024-03-07T04:45:04;19.00;;;14.60;;
4583;SDS011;2304;47.606;12.186;2024-03-07T04:50:07;18.53;;;14.87;;
4583;SDS011;2304;47.606;12.186;2024-03-07T04:55:12;18.77;;;14.10;;
4583;SDS011;2304;47.606;12.186;2024-03-07T05:00:19;19.13;;;13.10;;
4583;SDS011;2304;47.606;12.186;2024-03-07T05:05:21;18.67;;;13.73;;
4583;SDS011;2304;47.606;12.186;2024-03-07T05:10:27;19.53;;;13.90;;
4583;SDS011;2304;47.606;12.186;2024-03-07T05:15:30;20.67;;;15.60;;
4583;SDS011;2304;47.606;12.186;2024-03-07T05:20:32;20.83;;;15.90;;
4583;SDS011;2304;47.606;12.186;2024-03-07T05:25:36;17.47;;;13.83;;
4583;SDS011;2304;47.606;12.186;2024-03-07T05:30:40;29.17;;;19.80;;
4583;SDS011;2304;47.606;12.186;2024-03-07T05:35:44;21.77;;;15.47;;
4583;SDS011;2304;47.606;12.186;2024-03-07T05:40:48;19.37;;;14.03;;
4583;SDS011;2304;47.606;12.186;2024-03-07T05:45:50;21.40;;;14.50;;
4583;SDS011;2304;47.606;12.186;2024-03-07T05:50:52;19.33;;;14.13;;
4583;SDS011;2304;47.606;12.186;2024-03-07T05:55:55;20.33;;;15.87;;
4583;SDS011;2304;47.606;12.186;2024-03-07T06:00:57;21.67;;;15.20;;
4583;SDS011;2304;47.606;12.186;2024-03-07T06:05:59;19.53;;;13.73;;
4583;SDS011;2304;47.606;12.186;2024-03-07T06:16:21;20.90;;;14.63;;
4583;SDS011;2304;47.606;12.186;2024-03-07T06:21:23;20.00;;;15.13;;
4583;SDS011;2304;47.606;12.186;2024-03-07T06:26:27;21.30;;;14.93;;
4583;SDS011;2304;47.606;12.186;2024-03-07T06:31:46;24.63;;;15.70;;
4583;SDS011;2304;47.606;12.186;2024-03-07T06:36:48;23.37;;;15.40;;
4583;SDS011;2304;47.606;12.186;2024-03-07T06:41:51;24.60;;;16.60;;
4583;SDS011;2304;47.606;12.186;2024-03-07T06:46:53;25.83;;;17.50;;
4583;SDS011;2304;47.606;12.186;2024-03-07T06:51:55;23.97;;;16.23;;
4583;SDS011;2304;47.606;12.186;2024-03-07T06:56:58;22.60;;;14.80;;
4583;SDS011;2304;47.606;12.186;2024-03-07T07:02:00;21.53;;;14.43;;
4583;SDS011;2304;47.606;12.186;2024-03-07T07:07:03;21.50;;;15.40;;
4583;SDS011;2304;47.606;12.186;2024-03-07T07:12:07;21.53;;;15.63;;
4583;SDS011;2304;47.606;12.186;2024-03-07T07:17:09;22.43;;;15.40;;
4583;SDS011;2304;47.606;12.186;2024-03-07T07:22:13;25.83;;;14.80;;
4583;SDS011;2304;47.606;12.186;2024-03-07T07:27:17;24.70;;;17.07;;
4583;SDS011;2304;47.606;12.186;2024-03-07T07:32:19;24.80;;;15.93;;
4583;SDS011;2304;47.606;12.186;2024-03-07T07:37:21;22.73;;;14.80;;
4583;SDS011;2304;47.606;12.186;2024-03-07T07:42:24;22.10;;;15.00;;
4583;SDS011;2304;47.606;12.186;2024-03-07T07:47:26;23.00;;;14.97;;
4583;SDS011;2304;47.606;12.186;2024-03-07T07:52:28;24.53;;;14.10;;
4583;SDS011;2304;47.606;12.186;2024-03-07T07:57:43;19.07;;;13.63;;
4583;SDS011;2304;47.606;12.186;2024-03-07T08:02:47;21.87;;;14.63;;
4583;SDS011;2304;47.606;12.186;2024-03-07T08:07:51;18.63;;;11.63;;
4583;SDS011;2304;47.606;12.186;2024-03-07T08:12:56;27.30;;;15.50;;
4583;SDS011;2304;47.606;12.186;2024-03-07T08:17:58;21.47;;;12.10;;
4583;SDS011;2304;47.606;12.186;2024-03-07T08:23:00;18.53;;;10.83;;
4583;SDS011;2304;47.606;12.186;2024-03-07T08:28:04;21.20;;;12.80;;
4583;SDS011;2304;47.606;12.186;2024-03-07T08:33:09;18.77;;;11.03;;
4583;SDS011;2304;47.606;12.186;2024-03-07T08:38:33;17.40;;;10.20;;
4583;SDS011;2304;47.606;12.186;2024-03-07T08:43:38;16.67;;;10.53;;
4583;SDS011;2304;47.606;12.186;2024-03-07T08:48:41;13.60;;;8.33;;
4583;SDS011;2304;47.606;12.186;2024-03-07T08:53:43;12.10;;;7.87;;
4583;SDS011;2304;47.606;12.186;2024-03-07T08:58:46;15.10;;;8.60;;
4583;SDS011;2304;47.606;12.186;2024-03-07T09:03:48;15.97;;;8.37;;
4583;SDS011;2304;47.606;12.186;2024-03-07T09:08:50;13.53;;;7.10;;
4583;SDS011;2304;47.606;12.186;2024-03-07T09:13:53;13.27;;;6.60;;
4583;SDS011;2304;47.606;12.186;2024-03-07T09:18:55;8.83;;;5.90;;
4583;SDS011;2304;47.606;12.186;2024-03-07T09:23:58;8.70;;;5.37;;
4583;SDS011;2304;47.606;12.186;2024-03-07T09:29:01;11.00;;;5.47;;
4583;SDS011;2304;47.606;12.186;2024-03-07T09:34:06;9.87;;;5.53;;
4583;SDS011;2304;47.606;12.186;2024-03-07T09:39:08;10.70;;;5.10;;
4583;SDS011;2304;47.606;12.186;2024-03-07T09:44:14;10.30;;;6.63;;
4583;SDS011;2304;47.606;12.186;2024-03-07T09:49:22;9.60;;;5.80;;
4583;SDS011;2304;47.606;12.186;2024-03-07T09:54:25;6.73;;;4.47;;
4583;SDS011;2304;47.606;12.186;2024-03-07T09:59:29;9.47;;;5.10;;
4583;SDS011;2304;47.606;12.186;2024-03-07T10:04:38;9.37;;;7.67;;
4583;SDS011;2304;47.606;12.186;2024-03-07T10:09:45;8.23;;;5.93;;
4583;SDS011;2304;47.606;12.186;2024-03-07T10:14:51;12.43;;;9.60;;
4583;SDS011;2304;47.606;12.186;2024-03-07T10:20:12;9.30;;;6.13;;
4583;SDS011;2304;47.606;12.186;2024-03-07T10:25:16;8.90;;;5.87;;
4583;SDS011;2304;47.606;12.186;2024-03-07T10:30:20;9.90;;;6.30;;
4583;SDS011;2304;47.606;12.186;2024-03-07T10:35:23;8.00;;;4.57;;
4583;SDS011;2304;47.606;12.186;2024-03-07T10:40:25;7.07;;;4.80;;
4583;SDS011;2304;47.606;12.186;2024-03-07T10:45:29;10.07;;;6.17;;
4583;SDS011;2304;47.606;12.186;2024-03-07T10:56:00;6.90;;;4.67;;
4583;SDS011;2304;47.606;12.186;2024-03-07T11:01:16;12.10;;;7.60;;
4583;SDS011;2304;47.606;12.186;2024-03-07T11:06:21;12.80;;;7.50;;
4583;SDS011;2304;47.606;12.186;2024-03-07T11:11:23;16.73;;;14.93;;
4583;SDS011;2304;47.606;12.186;2024-03-07T11:16:27;8.50;;;5.97;;
4583;SDS011;2304;47.606;12.186;2024-03-07T11:21:41;8.00;;;4.90;;
4583;SDS011;2304;47.606;12.186;2024-03-07T11:26:43;7.97;;;5.40;;
4583;SDS011;2304;47.606;12.186;2024-03-07T11:31:50;7.63;;;5.10;;
4583;SDS011;2304;47.606;12.186;2024-03-07T11:36:55;7.23;;;5.40;;
4583;SDS011;2304;47.606;12.186;2024-03-07T11:42:00;9.30;;;6.40;;
4583;SDS011;2304;47.606;12.186;2024-03-07T11:47:07;6.17;;;4.10;;
4583;SDS011;2304;47.606;12.186;2024-03-07T11:52:09;7.70;;;4.40;;
4583;SDS011;2304;47.606;12.186;2024-03-07T11:57:14;6.90;;;4.60;;
4583;SDS011;2304;47.606;12.186;2024-03-07T12:02:18;27.60;;;19.27;;
4583;SDS011;2304;47.606;12.186;2024-03-07T12:07:22;13.03;;;11.00;;
4583;SDS011;2304;47.606;12.186;2024-03-07T12:12:24;10.50;;;5.90;;
4583;SDS011;2304;47.606;12.186;2024-03-07T12:17:29;7.73;;;4.43;;
4583;SDS011;2304;47.606;12.186;2024-03-07T12:22:33;7.90;;;5.80;;
4583;SDS011;2304;47.606;12.186;2024-03-07T12:27:37;12.10;;;5.70;;
4583;SDS011;2304;47.606;12.186;2024-03-07T12:32:44;7.10;;;4.90;;
4583;SDS011;2304;47.606;12.186;2024-03-07T12:37:49;9.97;;;6.20;;
4583;SDS011;2304;47.606;12.186;2024-03-07T12:42:51;10.47;;;6.43;;
4583;SDS011;2304;47.606;12.186;2024-03-07T12:47:55;9.63;;;6.40;;
4583;SDS011;2304;47.606;12.186;2024-03-07T12:53:04;8.53;;;6.00;;
4583;SDS011;2304;47.606;12.186;2024-03-07T12:58:06;10.90;;;5.87;;
4583;SDS011;2304;47.606;12.186;2024-03-07T13:03:10;9.20;;;6.00;;
4583;SDS011;2304;47.606;12.186;2024-03-07T13:08:14;12.03;;;7.23;;
4583;SDS011;2304;47.606;12.186;2024-03-07T13:13:16;13.10;;;8.50;;
4583;SDS011;2304;47.606;12.186;2024-03-07T13:18:19;12.77;;;8.57;;
4583;SDS011;2304;47.606;12.186;2024-03-07T13:23:22;16.83;;;9.80;;
4583;SDS011;2304;47.606;12.186;2024-03-07T13:28:27;15.13;;;9.83;;
4583;SDS011;2304;47.606;12.186;2024-03-07T13:33:31;11.50;;;7.93;;
4583;SDS011;2304;47.606;12.186;2024-03-07T13:38:35;15.07;;;9.90;;
4583;SDS011;2304;47.606;12.186;2024-03-07T13:43:38;16.33;;;10.30;;
4583;SDS011;2304;47.606;12.186;2024-03-07T13:48:42;18.43;;;11.60;;
4583;SDS011;2304;47.606;12.186;2024-03-07T13:53:43;16.73;;;10.93;;
4583;SDS011;2304;47.606;12.186;2024-03-07T13:58:54;25.70;;;13.77;;
4583;SDS011;2304;47.606;12.186;2024-03-07T14:04:27;23.17;;;14.70;;
4583;SDS011;2304;47.606;12.186;2024-03-07T14:09:56;24.90;;;15.20;;
4583;SDS011;2304;47.606;12.186;2024-03-07T14:15:54;23.93;;;15.13;;
4583;SDS011;2304;47.606;12.186;2024-03-07T14:21:23;26.33;;;16.10;;
4583;SDS011;2304;47.606;12.186;2024-03-07T14:26:59;24.60;;;15.10;;
4583;SDS011;2304;47.606;12.186;2024-03-07T14:32:20;27.63;;;17.43;;
4583;SDS011;2304;47.606;12.186;2024-03-07T14:37:25;30.97;;;17.30;;
4583;SDS011;2304;47.606;12.186;2024-03-07T14:42:30;28.97;;;17.30;;
4583;SDS011;2304;47.606;12.186;2024-03-07T14:47:32;34.20;;;18.73;;
4583;SDS011;2304;47.606;12.186;2024-03-07T14:52:36;32.90;;;18.30;;
4583;SDS011;2304;47.606;12.186;2024-03-07T14:57:40;31.40;;;18.60;;
4583;SDS011;2304;47.606;12.186;2024-03-07T15:02:42;33.83;;;20.10;;
4583;SDS011;2304;47.606;12.186;2024-03-07T15:07:48;34.50;;;19.90;;
4583;SDS011;2304;47.606;12.186;2024-03-07T15:12:51;36.47;;;23.03;;
4583;SDS011;2304;47.606;12.186;2024-03-07T15:17:53;35.70;;;21.40;;
4583;SDS011;2304;47.606;12.186;2024-03-07T15:22:57;38.73;;;22.67;;
4583;SDS011;2304;47.606;12.186;2024-03-07T15:27:59;39.30;;;23.33;;
4583;SDS011;2304;47.606;12.186;2024-03-07T15:33:02;38.97;;;23.37;;
4583;SDS011;2304;47.606;12.186;2024-03-07T15:38:06;43.83;;;25.23;;
4583;SDS011;2304;47.606;12.186;2024-03-07T15:43:19;39.67;;;24.57;;
4583;SDS011;2304;47.606;12.186;2024-03-07T15:48:21;42.07;;;24.83;;
4583;SDS011;2304;47.606;12.186;2024-03-07T15:53:25;46.83;;;28.53;;
4583;SDS011;2304;47.606;12.186;2024-03-07T15:58:27;48.10;;;29.20;;
4583;SDS011;2304;47.606;12.186;2024-03-07T16:03:29;46.67;;;29.40;;
4583;SDS011;2304;47.606;12.186;2024-03-07T16:08:33;50.73;;;27.83;;
4583;SDS011;2304;47.606;12.186;2024-03-07T16:13:35;64.60;;;36.30;;
4583;SDS011;2304;47.606;12.186;2024-03-07T16:18:43;129.83;;;60.97;;
4583;SDS011;2304;47.606;12.186;2024-03-07T16:23:50;242.70;;;100.20;;
4583;SDS011;2304;47.606;12.186;2024-03-07T16:28:53;129.70;;;67.37;;
4583;SDS011;2304;47.606;12.186;2024-03-07T16:33:55;76.63;;;39.43;;
4583;SDS011;2304;47.606;12.186;2024-03-07T16:39:00;242.93;;;103.57;;
4583;SDS011;2304;47.606;12.186;2024-03-07T16:44:12;53.07;;;29.70;;
4583;SDS011;2304;47.606;12.186;2024-03-07T16:49:14;49.90;;;29.53;;
4583;SDS011;2304;47.606;12.186;2024-03-07T16:54:17;58.83;;;32.23;;
4583;SDS011;2304;47.606;12.186;2024-03-07T16:59:19;43.70;;;28.40;;
4583;SDS011;2304;47.606;12.186;2024-03-07T17:04:21;37.93;;;22.50;;
4583;SDS011;2304;47.606;12.186;2024-03-07T17:09:25;39.70;;;22.87;;
4583;SDS011;2304;47.606;12.186;2024-03-07T17:14:27;36.87;;;22.70;;
4583;SDS011;2304;47.606;12.186;2024-03-07T17:19:29;33.40;;;20.67;;
4583;SDS011;2304;47.606;12.186;2024-03-07T17:24:33;39.13;;;24.73;;
4583;SDS011;2304;47.606;12.186;2024-03-07T17:29:41;36.00;;;22.10;;
4583;SDS011;2304;47.606;12.186;2024-03-07T17:34:43;33.17;;;20.40;;
4583;SDS011;2304;47.606;12.186;2024-03-07T17:39:49;31.20;;;19.50;;
4583;SDS011;2304;47.606;12.186;2024-03-07T17:44:53;33.93;;;20.30;;
4583;SDS011;2304;47.606;12.186;2024-03-07T17:49:55;29.67;;;18.50;;
4583;SDS011;2304;47.606;12.186;2024-03-07T17:54:58;63.87;;;35.50;;
4583;SDS011;2304;47.606;12.186;2024-03-07T18:00:01;47.30;;;28.03;;
4583;SDS011;2304;47.606;12.186;2024-03-07T18:05:10;100.53;;;54.60;;
4583;SDS011;2304;47.606;12.186;2024-03-07T18:10:15;36.10;;;21.40;;
4583;SDS011;2304;47.606;12.186;2024-03-07T18:15:20;28.27;;;18.17;;
4583;SDS011;2304;47.606;12.186;2024-03-07T18:20:27;35.10;;;21.40;;
4583;SDS011;2304;47.606;12.186;2024-03-07T18:25:31;33.77;;;20.40;;
4583;SDS011;2304;47.606;12.186;2024-03-07T18:30:35;33.10;;;20.97;;
4583;SDS011;2304;47.606;12.186;2024-03-07T18:35:37;30.60;;;19.13;;
4583;SDS011;2304;47.606;12.186;2024-03-07T18:40:44;29.00;;;17.27;;
4583;SDS011;2304;47.606;12.186;2024-03-07T18:45:48;33.37;;;19.37;;
4583;SDS011;2304;47.606;12.186;2024-03-07T18:50:51;30.20;;;18.90;;
4583;SDS011;2304;47.606;12.186;2024-03-07T18:55:54;34.53;;;19.83;;
4583;SDS011;2304;47.606;12.186;2024-03-07T19:00:56;32.80;;;18.37;;
4583;SDS011;2304;47.606;12.186;2024-03-07T19:05:58;31.33;;;19.70;;
4583;SDS011;2304;47.606;12.186;2024-03-07T19:11:02;33.80;;;20.90;;
4583;SDS011;2304;47.606;12.186;2024-03-07T19:16:08;36.30;;;22.80;;
4583;SDS011;2304;47.606;12.186;2024-03-07T19:21:10;36.97;;;21.93;;
4583;SDS011;2304;47.606;12.186;2024-03-07T19:26:14;40.03;;;25.23;;
4583;SDS011;2304;47.606;12.186;2024-03-07T19:31:19;44.87;;;26.10;;
4583;SDS011;2304;47.606;12.186;2024-03-07T19:36:21;33.77;;;20.53;;
4583;SDS011;2304;47.606;12.186;2024-03-07T19:41:25;30.70;;;19.00;;
4583;SDS011;2304;47.606;12.186;2024-03-07T19:46:27;41.67;;;23.13;;
4583;SDS011;2304;47.606;12.186;2024-03-07T19:51:39;32.83;;;20.00;;
4583;SDS011;2304;47.606;12.186;2024-03-07T19:56:42;30.60;;;18.10;;
4583;SDS011;2304;47.606;12.186;2024-03-07T20:01:44;31.63;;;19.37;;
4583;SDS011;2304;47.606;12.186;2024-03-07T20:06:46;30.40;;;18.30;;
4583;SDS011;2304;47.606;12.186;2024-03-07T20:11:49;30.37;;;18.00;;
4583;SDS011;2304;47.606;12.186;2024-03-07T20:16:53;29.70;;;17.43;;
4583;SDS011;2304;47.606;12.186;2024-03-07T20:21:56;28.30;;;17.23;;
4583;SDS011;2304;47.606;12.186;2024-03-07T20:27:11;27.93;;;17.83;;
4583;SDS011;2304;47.606;12.186;2024-03-07T20:32:14;28.07;;;16.30;;
4583;SDS011;2304;47.606;12.186;2024-03-07T20:37:16;28.43;;;16.97;;
4583;SDS011;2304;47.606;12.186;2024-03-07T20:42:19;29.30;;;18.10;;
4583;SDS011;2304;47.606;12.186;2024-03-07T20:47:21;38.30;;;18.30;;
4583;SDS011;2304;47.606;12.186;2024-03-07T20:52:23;29.33;;;16.77;;
4583;SDS011;2304;47.606;12.186;2024-03-07T20:57:29;29.80;;;16.93;;
4583;SDS011;2304;47.606;12.186;2024-03-07T21:02:40;26.73;;;16.37;;
4583;SDS011;2304;47.606;12.186;2024-03-07T21:07:42;28.57;;;17.00;;
4583;SDS011;2304;47.606;12.186;2024-03-07T21:12:46;27.50;;;17.07;;
4583;SDS011;2304;47.606;12.186;2024-03-07T21:17:48;27.70;;;16.70;;
4583;SDS011;2304;47.606;12.186;2024-03-07T21:22:50;32.13;;;19.30;;
4583;SDS011;2304;47.606;12.186;2024-03-07T21:27:53;28.60;;;18.13;;
4583;SDS011;2304;47.606;12.186;2024-03-07T21:32:55;30.03;;;17.87;;
4583;SDS011;2304;47.606;12.186;2024-03-07T21:38:09;39.97;;;20.57;;
4583;SDS011;2304;47.606;12.186;2024-03-07T21:43:13;27.80;;;18.10;;
4583;SDS011;2304;47.606;12.186;2024-03-07T21:48:15;35.40;;;20.10;;
4583;SDS011;2304;47.606;12.186;2024-03-07T21:53:17;28.13;;;16.90;;
4583;SDS011;2304;47.606;12.186;2024-03-07T21:58:20;33.50;;;20.90;;
4583;SDS011;2304;47.606;12.186;2024-03-07T22:03:22;30.80;;;17.23;;
4583;SDS011;2304;47.606;12.186;2024-03-07T22:08:24;31.97;;;18.10;;
4583;SDS011;2304;47.606;12.186;2024-03-07T22:13:38;28.70;;;17.60;;
4583;SDS011;2304;47.606;12.186;2024-03-07T22:18:40;29.20;;;17.50;;
4583;SDS011;2304;47.606;12.186;2024-03-07T22:23:42;30.40;;;18.80;;
4583;SDS011;2304;47.606;12.186;2024-03-07T22:28:46;27.00;;;16.80;;
4583;SDS011;2304;47.606;12.186;2024-03-07T22:33:48;30.90;;;17.03;;
4583;SDS011;2304;47.606;12.186;2024-03-07T22:38:50;30.07;;;17.90;;
4583;SDS011;2304;47.606;12.186;2024-03-07T22:43:54;32.60;;;19.53;;
4583;SDS011;2304;47.606;12.186;2024-03-07T22:48:55;30.70;;;17.50;;
4583;SDS011;2304;47.606;12.186;2024-03-07T22:54:06;26.53;;;18.00;;
4583;SDS011;2304;47.606;12.186;2024-03-07T22:59:09;28.97;;;17.97;;
4583;SDS011;2304;47.606;12.186;2024-03-07T23:04:11;30.60;;;17.77;;
4583;SDS011;2304;47.606;12.186;2024-03-07T23:09:14;28.57;;;17.40;;
4583;SDS011;2304;47.606;12.186;2024-03-07T23:14:18;28.00;;;17.00;;
4583;SDS011;2304;47.606;12.186;2024-03-07T23:19:22;31.20;;;17.40;;
4583;SDS011;2304;47.606;12.186;2024-03-07T23:29:51;52.37;;;26.20;;
4583;SDS011;2304;47.606;12.186;2024-03-07T23:34:53;45.67;;;24.20;;
4583;SDS011;2304;47.606;12.186;2024-03-07T23:39:57;29.27;;;17.23;;
4583;SDS011;2304;47.606;12.186;2024-03-07T23:45:01;29.60;;;17.47;;
4583;SDS011;2304;47.606;12.186;2024-03-07T23:50:03;26.67;;;17.37;;
4583;SDS011;2304;47.606;12.186;2024-03-07T23:55:08;29.80;;;17.53;;
